sensor_id;sensor_type;location;lat;lon;timestamp;pressure;altitude;pressure_sealevel;temperature
22269;BMP280;11303;50.772;19.670;2023-08-24T00:01:01;99228.16;;;13.40
22269;BMP280;11303;50.772;19.670;2023-08-24T00:03:03;99227.72;;;13.38
22269;BMP280;11303;50.772;19.670;2023-08-24T00:05:05;99233.31;;;13.36
22269;BMP280;11303;50.772;19.670;2023-08-24T00:07:07;99233.25;;;13.33
22269;BMP280;11303;50.772;19.670;2023-08-24T00:09:09;99228.34;;;13.31
22269;BMP280;11303;50.772;19.670;2023-08-24T00:11:11;99223.84;;;13.28
22269;BMP280;11303;50.772;19.670;2023-08-24T00:13:16;99218.63;;;13.28
22269;BMP280;11303;50.772;19.670;2023-08-24T00:15:18;99231.66;;;13.28
22269;BMP280;11303;50.772;19.670;2023-08-24T00:17:20;99233.25;;;13.33
22269;BMP280;11303;50.772;19.670;2023-08-24T00:19:21;99228.44;;;13.35
22269;BMP280;11303;50.772;19.670;2023-08-24T00:21:23;99231.81;;;13.35
22269;BMP280;11303;50.772;19.670;2023-08-24T00:23:25;99232.56;;;13.36
22269;BMP280;11303;50.772;19.670;2023-08-24T00:25:26;99235.56;;;13.38
22269;BMP280;11303;50.772;19.670;2023-08-24T00:27:28;99229.53;;;13.34
22269;BMP280;11303;50.772;19.670;2023-08-24T00:29:30;99226.50;;;13.32
22269;BMP280;11303;50.772;19.670;2023-08-24T00:31:31;99233.19;;;13.29
22269;BMP280;11303;50.772;19.670;2023-08-24T00:33:34;99231.34;;;13.30
22269;BMP280;11303;50.772;19.670;2023-08-24T00:35:35;99231.19;;;13.22
22269;BMP280;11303;50.772;19.670;2023-08-24T00:37:38;99231.25;;;13.26
22269;BMP280;11303;50.772;19.670;2023-08-24T00:39:40;99235.44;;;13.73
22269;BMP280;11303;50.772;19.670;2023-08-24T00:41:42;99242.34;;;13.85
22269;BMP280;11303;50.772;19.670;2023-08-24T00:43:44;99224.94;;;13.70
22269;BMP280;11303;50.772;19.670;2023-08-24T00:45:46;99227.34;;;13.59
22269;BMP280;11303;50.772;19.670;2023-08-24T00:47:47;99236.59;;;13.53
22269;BMP280;11303;50.772;19.670;2023-08-24T00:49:51;99226.78;;;13.46
22269;BMP280;11303;50.772;19.670;2023-08-24T00:51:52;99227.38;;;13.39
22269;BMP280;11303;50.772;19.670;2023-08-24T00:53:54;99223.88;;;13.32
22269;BMP280;11303;50.772;19.670;2023-08-24T00:55:56;99225.63;;;13.24
22269;BMP280;11303;50.772;19.670;2023-08-24T00:57:58;99229.94;;;13.16
22269;BMP280;11303;50.772;19.670;2023-08-24T01:00:04;99229.88;;;13.13
22269;BMP280;11303;50.772;19.670;2023-08-24T01:02:12;99226.03;;;13.06
22269;BMP280;11303;50.772;19.670;2023-08-24T01:04:14;99232.63;;;13.00
22269;BMP280;11303;50.772;19.670;2023-08-24T01:06:16;99237.38;;;12.95
22269;BMP280;11303;50.772;19.670;2023-08-24T01:08:18;99231.72;;;12.93
22269;BMP280;11303;50.772;19.670;2023-08-24T01:10:20;99235.72;;;12.86
22269;BMP280;11303;50.772;19.670;2023-08-24T01:12:27;99231.50;;;12.82
22269;BMP280;11303;50.772;19.670;2023-08-24T01:14:45;99228.78;;;12.75
22269;BMP280;11303;50.772;19.670;2023-08-24T01:16:50;99229.13;;;12.73
22269;BMP280;11303;50.772;19.670;2023-08-24T01:18:56;99224.56;;;12.70
22269;BMP280;11303;50.772;19.670;2023-08-24T01:20:58;99234.16;;;12.66
22269;BMP280;11303;50.772;19.670;2023-08-24T01:23:09;99232.59;;;12.61
22269;BMP280;11303;50.772;19.670;2023-08-24T01:25:35;99228.47;;;12.60
22269;BMP280;11303;50.772;19.670;2023-08-24T01:27:40;99245.28;;;12.63
22269;BMP280;11303;50.772;19.670;2023-08-24T01:29:42;99233.34;;;12.62
22269;BMP280;11303;50.772;19.670;2023-08-24T01:31:43;99240.06;;;12.63
22269;BMP280;11303;50.772;19.670;2023-08-24T01:33:45;99241.06;;;12.58
22269;BMP280;11303;50.772;19.670;2023-08-24T01:35:47;99241.41;;;12.57
22269;BMP280;11303;50.772;19.670;2023-08-24T01:37:49;99244.03;;;12.57
22269;BMP280;11303;50.772;19.670;2023-08-24T01:40:02;99236.03;;;12.50
22269;BMP280;11303;50.772;19.670;2023-08-24T01:42:18;99229.91;;;12.42
22269;BMP280;11303;50.772;19.670;2023-08-24T01:44:23;99227.22;;;12.38
22269;BMP280;11303;50.772;19.670;2023-08-24T01:46:27;99225.72;;;12.37
22269;BMP280;11303;50.772;19.670;2023-08-24T01:48:30;99229.00;;;12.34
22269;BMP280;11303;50.772;19.670;2023-08-24T01:50:33;99225.13;;;12.28
22269;BMP280;11303;50.772;19.670;2023-08-24T01:52:35;99222.78;;;12.23
22269;BMP280;11303;50.772;19.670;2023-08-24T01:54:37;99231.53;;;12.15
22269;BMP280;11303;50.772;19.670;2023-08-24T01:56:38;99228.34;;;12.05
22269;BMP280;11303;50.772;19.670;2023-08-24T01:58:40;99218.28;;;12.04
22269;BMP280;11303;50.772;19.670;2023-08-24T02:00:42;99230.84;;;12.02
22269;BMP280;11303;50.772;19.670;2023-08-24T02:02:44;99231.50;;;11.99
22269;BMP280;11303;50.772;19.670;2023-08-24T02:04:46;99221.34;;;11.94
22269;BMP280;11303;50.772;19.670;2023-08-24T02:06:48;99220.84;;;11.88
22269;BMP280;11303;50.772;19.670;2023-08-24T02:08:49;99227.06;;;11.83
22269;BMP280;11303;50.772;19.670;2023-08-24T02:10:51;99220.34;;;11.82
22269;BMP280;11303;50.772;19.670;2023-08-24T02:12:52;99221.09;;;11.83
22269;BMP280;11303;50.772;19.670;2023-08-24T02:14:54;99226.31;;;11.83
22269;BMP280;11303;50.772;19.670;2023-08-24T02:16:56;99227.06;;;11.83
22269;BMP280;11303;50.772;19.670;2023-08-24T02:18:57;99234.53;;;11.85
22269;BMP280;11303;50.772;19.670;2023-08-24T02:20:59;99236.47;;;11.88
22269;BMP280;11303;50.772;19.670;2023-08-24T02:23:01;99232.38;;;11.87
22269;BMP280;11303;50.772;19.670;2023-08-24T02:25:04;99237.91;;;11.85
22269;BMP280;11303;50.772;19.670;2023-08-24T02:27:06;99240.78;;;11.80
22269;BMP280;11303;50.772;19.670;2023-08-24T02:29:08;99224.63;;;11.75
22269;BMP280;11303;50.772;19.670;2023-08-24T02:31:09;99231.56;;;11.71
22269;BMP280;11303;50.772;19.670;2023-08-24T02:33:11;99224.44;;;11.67
22269;BMP280;11303;50.772;19.670;2023-08-24T02:35:13;99239.38;;;11.71
22269;BMP280;11303;50.772;19.670;2023-08-24T02:37:14;99241.56;;;11.68
22269;BMP280;11303;50.772;19.670;2023-08-24T02:39:16;99241.56;;;11.68
22269;BMP280;11303;50.772;19.670;2023-08-24T02:41:18;99237.47;;;11.67
22269;BMP280;11303;50.772;19.670;2023-08-24T02:43:19;99241.16;;;11.66
22269;BMP280;11303;50.772;19.670;2023-08-24T02:45:21;99244.16;;;11.68
22269;BMP280;11303;50.772;19.670;2023-08-24T02:47:22;99254.25;;;11.70
22269;BMP280;11303;50.772;19.670;2023-08-24T02:49:24;99252.66;;;11.65
22269;BMP280;11303;50.772;19.670;2023-08-24T02:51:26;99251.78;;;11.61
22269;BMP280;11303;50.772;19.670;2023-08-24T02:53:27;99249.19;;;11.61
22269;BMP280;11303;50.772;19.670;2023-08-24T02:55:32;99252.56;;;11.62
22269;BMP280;11303;50.772;19.670;2023-08-24T02:57:34;99256.78;;;11.66
22269;BMP280;11303;50.772;19.670;2023-08-24T02:59:36;99247.88;;;11.67
22269;BMP280;11303;50.772;19.670;2023-08-24T03:01:38;99260.91;;;11.67
22269;BMP280;11303;50.772;19.670;2023-08-24T03:03:42;99248.97;;;11.66
22269;BMP280;11303;50.772;19.670;2023-08-24T03:06:01;99261.22;;;11.66
22269;BMP280;11303;50.772;19.670;2023-08-24T03:08:03;99258.19;;;11.64
22269;BMP280;11303;50.772;19.670;2023-08-24T03:10:06;99264.41;;;11.59
22269;BMP280;11303;50.772;19.670;2023-08-24T03:12:08;99264.75;;;11.58
22269;BMP280;11303;50.772;19.670;2023-08-24T03:14:10;99265.59;;;11.62
22269;BMP280;11303;50.772;19.670;2023-08-24T03:16:11;99257.44;;;11.63
22269;BMP280;11303;50.772;19.670;2023-08-24T03:18:14;99265.25;;;11.63
22269;BMP280;11303;50.772;19.670;2023-08-24T03:20:16;99257.78;;;11.62
22269;BMP280;11303;50.772;19.670;2023-08-24T03:22:18;99258.19;;;11.64
22269;BMP280;11303;50.772;19.670;2023-08-24T03:24:19;99257.00;;;11.61
22269;BMP280;11303;50.772;19.670;2023-08-24T03:26:21;99263.34;;;11.60
22269;BMP280;11303;50.772;19.670;2023-08-24T03:28:24;99267.34;;;11.58
22269;BMP280;11303;50.772;19.670;2023-08-24T03:30:26;99268.00;;;11.55
22269;BMP280;11303;50.772;19.670;2023-08-24T03:32:27;99272.88;;;11.56
22269;BMP280;11303;50.772;19.670;2023-08-24T03:34:29;99279.16;;;11.55
22269;BMP280;11303;50.772;19.670;2023-08-24T03:36:32;99276.13;;;11.53
22269;BMP280;11303;50.772;19.670;2023-08-24T03:38:34;99284.28;;;11.52
22269;BMP280;11303;50.772;19.670;2023-08-24T03:40:35;99285.59;;;11.45
22269;BMP280;11303;50.772;19.670;2023-08-24T03:42:37;99284.41;;;11.43
22269;BMP280;11303;50.772;19.670;2023-08-24T03:44:39;99288.56;;;11.44
22269;BMP280;11303;50.772;19.670;2023-08-24T03:46:41;99306.78;;;11.44
22269;BMP280;11303;50.772;19.670;2023-08-24T03:48:43;99306.84;;;11.47
22269;BMP280;11303;50.772;19.670;2023-08-24T03:50:45;99289.72;;;11.46
22269;BMP280;11303;50.772;19.670;2023-08-24T03:52:48;99307.63;;;11.48
22269;BMP280;11303;50.772;19.670;2023-08-24T03:54:49;99304.00;;;11.53
22269;BMP280;11303;50.772;19.670;2023-08-24T03:56:51;99298.91;;;11.56
22269;BMP280;11303;50.772;19.670;2023-08-24T03:58:53;99305.41;;;11.62
22269;BMP280;11303;50.772;19.670;2023-08-24T04:00:54;99307.78;;;11.67
22269;BMP280;11303;50.772;19.670;2023-08-24T04:02:57;99318.41;;;11.75
22269;BMP280;11303;50.772;19.670;2023-08-24T04:04:58;99317.88;;;11.85
22269;BMP280;11303;50.772;19.670;2023-08-24T04:07:00;99325.31;;;11.99
22269;BMP280;11303;50.772;19.670;2023-08-24T04:09:05;99334.34;;;12.17
22269;BMP280;11303;50.772;19.670;2023-08-24T04:11:07;99335.53;;;12.36
22269;BMP280;11303;50.772;19.670;2023-08-24T04:13:09;99336.16;;;12.61
22269;BMP280;11303;50.772;19.670;2023-08-24T04:15:12;99324.59;;;12.78
22269;BMP280;11303;50.772;19.670;2023-08-24T04:17:13;99338.13;;;12.99
22269;BMP280;11303;50.772;19.670;2023-08-24T04:19:15;99338.00;;;13.12
22269;BMP280;11303;50.772;19.670;2023-08-24T04:21:17;99319.47;;;13.36
22269;BMP280;11303;50.772;19.670;2023-08-24T04:23:24;99317.03;;;13.63
22269;BMP280;11303;50.772;19.670;2023-08-24T04:25:25;99308.03;;;13.83
22269;BMP280;11303;50.772;19.670;2023-08-24T04:27:27;99314.81;;;14.07
22269;BMP280;11303;50.772;19.670;2023-08-24T04:29:29;99309.09;;;14.25
22269;BMP280;11303;50.772;19.670;2023-08-24T04:31:30;99309.81;;;14.48
22269;BMP280;11303;50.772;19.670;2023-08-24T04:33:32;99305.69;;;14.74
22269;BMP280;11303;50.772;19.670;2023-08-24T04:35:34;99302.66;;;14.99
22269;BMP280;11303;50.772;19.670;2023-08-24T04:37:37;99304.09;;;15.26
22269;BMP280;11303;50.772;19.670;2023-08-24T04:39:39;99298.38;;;15.51
22269;BMP280;11303;50.772;19.670;2023-08-24T04:41:41;99300.00;;;15.70
22269;BMP280;11303;50.772;19.670;2023-08-24T04:43:42;99289.75;;;15.95
22269;BMP280;11303;50.772;19.670;2023-08-24T04:45:48;99289.09;;;16.05
22269;BMP280;11303;50.772;19.670;2023-08-24T04:47:51;99289.94;;;16.24
22269;BMP280;11303;50.772;19.670;2023-08-24T04:49:53;99291.56;;;16.39
22269;BMP280;11303;50.772;19.670;2023-08-24T04:51:55;99290.03;;;16.38
22269;BMP280;11303;50.772;19.670;2023-08-24T04:53:56;99295.00;;;16.54
22269;BMP280;11303;50.772;19.670;2023-08-24T04:55:58;99301.06;;;16.69
22269;BMP280;11303;50.772;19.670;2023-08-24T04:58:00;99294.81;;;16.95
22269;BMP280;11303;50.772;19.670;2023-08-24T05:00:02;99298.69;;;17.66
22269;BMP280;11303;50.772;19.670;2023-08-24T05:02:07;99298.34;;;18.95
22269;BMP280;11303;50.772;19.670;2023-08-24T05:04:09;99298.56;;;19.74
22269;BMP280;11303;50.772;19.670;2023-08-24T05:06:11;99284.78;;;19.97
22269;BMP280;11303;50.772;19.670;2023-08-24T05:08:13;99296.22;;;19.83
22269;BMP280;11303;50.772;19.670;2023-08-24T05:10:14;99292.63;;;19.67
22269;BMP280;11303;50.772;19.670;2023-08-24T05:12:16;99284.00;;;19.59
22269;BMP280;11303;50.772;19.670;2023-08-24T05:14:18;99290.97;;;19.83
22269;BMP280;11303;50.772;19.670;2023-08-24T05:16:19;99284.66;;;20.12
22269;BMP280;11303;50.772;19.670;2023-08-24T05:18:21;99289.22;;;20.42
22269;BMP280;11303;50.772;19.670;2023-08-24T05:20:23;99292.31;;;20.64
22269;BMP280;11303;50.772;19.670;2023-08-24T05:22:25;99288.72;;;20.78
22269;BMP280;11303;50.772;19.670;2023-08-24T05:24:26;99296.94;;;21.10
22269;BMP280;11303;50.772;19.670;2023-08-24T05:26:28;99301.50;;;21.33
22269;BMP280;11303;50.772;19.670;2023-08-24T05:28:32;99295.38;;;21.64
22269;BMP280;11303;50.772;19.670;2023-08-24T05:30:33;99299.09;;;21.86
22269;BMP280;11303;50.772;19.670;2023-08-24T05:32:35;99291.94;;;21.87
22269;BMP280;11303;50.772;19.670;2023-08-24T05:34:40;99299.19;;;22.02
22269;BMP280;11303;50.772;19.670;2023-08-24T05:36:41;99299.88;;;22.27
22269;BMP280;11303;50.772;19.670;2023-08-24T05:38:43;99296.56;;;22.39
22269;BMP280;11303;50.772;19.670;2023-08-24T05:40:51;99300.16;;;22.65
22269;BMP280;11303;50.772;19.670;2023-08-24T05:42:53;99297.31;;;22.56
22269;BMP280;11303;50.772;19.670;2023-08-24T05:44:54;99285.84;;;22.79
22269;BMP280;11303;50.772;19.670;2023-08-24T05:46:56;99295.94;;;23.33
22269;BMP280;11303;50.772;19.670;2023-08-24T05:48:58;99293.78;;;23.73
22269;BMP280;11303;50.772;19.670;2023-08-24T05:51:03;99293.81;;;23.86
22269;BMP280;11303;50.772;19.670;2023-08-24T05:53:04;99299.06;;;24.03
22269;BMP280;11303;50.772;19.670;2023-08-24T05:55:07;99297.25;;;24.51
22269;BMP280;11303;50.772;19.670;2023-08-24T05:57:09;99288.56;;;24.63
22269;BMP280;11303;50.772;19.670;2023-08-24T05:59:11;99293.81;;;24.76
22269;BMP280;11303;50.772;19.670;2023-08-24T06:01:12;99281.97;;;25.02
22269;BMP280;11303;50.772;19.670;2023-08-24T06:03:14;99285.41;;;25.25
22269;BMP280;11303;50.772;19.670;2023-08-24T06:05:16;99294.66;;;25.55
22269;BMP280;11303;50.772;19.670;2023-08-24T06:07:19;99299.22;;;26.08
22269;BMP280;11303;50.772;19.670;2023-08-24T06:09:23;99300.25;;;26.51
22269;BMP280;11303;50.772;19.670;2023-08-24T06:11:24;99292.59;;;26.80
22269;BMP280;11303;50.772;19.670;2023-08-24T06:13:26;99290.97;;;27.10
22269;BMP280;11303;50.772;19.670;2023-08-24T06:15:28;99288.84;;;27.42
22269;BMP280;11303;50.772;19.670;2023-08-24T06:17:30;99288.16;;;27.23
22269;BMP280;11303;50.772;19.670;2023-08-24T06:19:32;99298.97;;;27.38
22269;BMP280;11303;50.772;19.670;2023-08-24T06:21:33;99279.22;;;27.45
22269;BMP280;11303;50.772;19.670;2023-08-24T06:23:35;99290.22;;;27.80
22269;BMP280;11303;50.772;19.670;2023-08-24T06:25:37;99278.88;;;28.03
22269;BMP280;11303;50.772;19.670;2023-08-24T06:27:38;99277.69;;;28.28
22269;BMP280;11303;50.772;19.670;2023-08-24T06:29:43;99282.66;;;28.45
22269;BMP280;11303;50.772;19.670;2023-08-24T06:31:45;99273.78;;;28.78
22269;BMP280;11303;50.772;19.670;2023-08-24T06:33:48;99282.84;;;29.10
22269;BMP280;11303;50.772;19.670;2023-08-24T06:35:50;99274.72;;;29.49
22269;BMP280;11303;50.772;19.670;2023-08-24T06:37:51;99284.09;;;29.74
22269;BMP280;11303;50.772;19.670;2023-08-24T06:39:54;99281.34;;;30.03
22269;BMP280;11303;50.772;19.670;2023-08-24T06:41:55;99282.88;;;30.10
22269;BMP280;11303;50.772;19.670;2023-08-24T06:43:57;99273.31;;;29.68
22269;BMP280;11303;50.772;19.670;2023-08-24T06:46:00;99277.31;;;29.93
22269;BMP280;11303;50.772;19.670;2023-08-24T06:48:02;99279.41;;;30.45
22269;BMP280;11303;50.772;19.670;2023-08-24T06:50:05;99274.69;;;30.66
22269;BMP280;11303;50.772;19.670;2023-08-24T06:52:07;99281.81;;;30.95
22269;BMP280;11303;50.772;19.670;2023-08-24T06:54:09;99267.91;;;30.65
22269;BMP280;11303;50.772;19.670;2023-08-24T06:56:12;99278.69;;;30.50
22269;BMP280;11303;50.772;19.670;2023-08-24T06:58:15;99280.81;;;30.92
22269;BMP280;11303;50.772;19.670;2023-08-24T07:00:21;99282.66;;;31.38
22269;BMP280;11303;50.772;19.670;2023-08-24T07:02:27;99278.56;;;31.48
22269;BMP280;11303;50.772;19.670;2023-08-24T07:04:28;99276.63;;;31.49
22269;BMP280;11303;50.772;19.670;2023-08-24T07:06:33;99278.13;;;31.55
22269;BMP280;11303;50.772;19.670;2023-08-24T07:08:35;99269.06;;;31.53
22269;BMP280;11303;50.772;19.670;2023-08-24T07:10:38;99266.22;;;31.73
22269;BMP280;11303;50.772;19.670;2023-08-24T07:12:40;99257.88;;;31.60
22269;BMP280;11303;50.772;19.670;2023-08-24T07:14:42;99248.28;;;31.48
22269;BMP280;11303;50.772;19.670;2023-08-24T07:16:44;99259.16;;;31.76
22269;BMP280;11303;50.772;19.670;2023-08-24T07:18:45;99258.31;;;32.01
22269;BMP280;11303;50.772;19.670;2023-08-24T07:20:47;99259.19;;;32.58
22269;BMP280;11303;50.772;19.670;2023-08-24T07:22:49;99253.53;;;33.07
22269;BMP280;11303;50.772;19.670;2023-08-24T07:24:52;99251.84;;;32.87
22269;BMP280;11303;50.772;19.670;2023-08-24T07:26:54;99246.94;;;32.46
22269;BMP280;11303;50.772;19.670;2023-08-24T07:28:56;99240.28;;;32.19
22269;BMP280;11303;50.772;19.670;2023-08-24T07:30:58;99239.31;;;32.22
22269;BMP280;11303;50.772;19.670;2023-08-24T07:33:01;99238.13;;;32.62
22269;BMP280;11303;50.772;19.670;2023-08-24T07:35:05;99240.34;;;32.69
22269;BMP280;11303;50.772;19.670;2023-08-24T07:37:07;99237.88;;;33.05
22269;BMP280;11303;50.772;19.670;2023-08-24T07:39:09;99236.41;;;33.10
22269;BMP280;11303;50.772;19.670;2023-08-24T07:41:11;99234.38;;;33.33
22269;BMP280;11303;50.772;19.670;2023-08-24T07:43:13;99229.81;;;33.75
22269;BMP280;11303;50.772;19.670;2023-08-24T07:45:15;99231.72;;;33.85
22269;BMP280;11303;50.772;19.670;2023-08-24T07:47:16;99232.69;;;33.93
22269;BMP280;11303;50.772;19.670;2023-08-24T07:49:18;99230.00;;;33.93
22269;BMP280;11303;50.772;19.670;2023-08-24T07:51:20;99228.53;;;33.87
22269;BMP280;11303;50.772;19.670;2023-08-24T07:53:21;99228.28;;;33.90
22269;BMP280;11303;50.772;19.670;2023-08-24T07:55:23;99225.03;;;34.03
22269;BMP280;11303;50.772;19.670;2023-08-24T07:57:25;99223.22;;;34.17
22269;BMP280;11303;50.772;19.670;2023-08-24T07:59:28;99222.03;;;34.42
22269;BMP280;11303;50.772;19.670;2023-08-24T08:01:30;99215.31;;;34.25
22269;BMP280;11303;50.772;19.670;2023-08-24T08:03:32;99210.50;;;34.12
22269;BMP280;11303;50.772;19.670;2023-08-24T08:05:35;99209.88;;;33.94
22269;BMP280;11303;50.772;19.670;2023-08-24T08:07:37;99208.66;;;33.37
22269;BMP280;11303;50.772;19.670;2023-08-24T08:09:40;99208.91;;;33.39
22269;BMP280;11303;50.772;19.670;2023-08-24T08:11:41;99217.66;;;33.57
22269;BMP280;11303;50.772;19.670;2023-08-24T08:13:43;99213.75;;;33.99
22269;BMP280;11303;50.772;19.670;2023-08-24T08:15:45;99214.03;;;33.95
22269;BMP280;11303;50.772;19.670;2023-08-24T08:17:47;99212.91;;;33.80
22269;BMP280;11303;50.772;19.670;2023-08-24T08:19:57;99211.81;;;33.53
22269;BMP280;11303;50.772;19.670;2023-08-24T08:21:58;99202.38;;;32.90
22269;BMP280;11303;50.772;19.670;2023-08-24T08:24:00;99195.66;;;31.84
22269;BMP280;11303;50.772;19.670;2023-08-24T08:26:02;99203.78;;;31.95
22269;BMP280;11303;50.772;19.670;2023-08-24T08:28:04;99199.72;;;32.56
22269;BMP280;11303;50.772;19.670;2023-08-24T08:30:06;99200.69;;;32.92
22269;BMP280;11303;50.772;19.670;2023-08-24T08:32:08;99203.31;;;33.26
22269;BMP280;11303;50.772;19.670;2023-08-24T08:34:10;99215.75;;;33.46
22269;BMP280;11303;50.772;19.670;2023-08-24T08:36:12;99208.44;;;33.82
22269;BMP280;11303;50.772;19.670;2023-08-24T08:38:13;99206.94;;;33.92
22269;BMP280;11303;50.772;19.670;2023-08-24T08:40:17;99194.44;;;33.89
22269;BMP280;11303;50.772;19.670;2023-08-24T08:42:19;99198.78;;;34.04
22269;BMP280;11303;50.772;19.670;2023-08-24T08:44:21;99190.06;;;34.22
22269;BMP280;11303;50.772;19.670;2023-08-24T08:46:24;99196.16;;;33.87
22269;BMP280;11303;50.772;19.670;2023-08-24T08:48:28;99181.66;;;33.95
22269;BMP280;11303;50.772;19.670;2023-08-24T08:50:32;99185.84;;;33.96
22269;BMP280;11303;50.772;19.670;2023-08-24T08:52:34;99187.19;;;33.73
22269;BMP280;11303;50.772;19.670;2023-08-24T08:54:36;99185.69;;;33.83
22269;BMP280;11303;50.772;19.670;2023-08-24T08:56:38;99180.94;;;33.95
22269;BMP280;11303;50.772;19.670;2023-08-24T08:58:40;99175.69;;;33.72
22269;BMP280;11303;50.772;19.670;2023-08-24T09:00:46;99181.44;;;33.46
22269;BMP280;11303;50.772;19.670;2023-08-24T09:02:48;99176.78;;;33.53
22269;BMP280;11303;50.772;19.670;2023-08-24T09:04:53;99162.16;;;33.37
22269;BMP280;11303;50.772;19.670;2023-08-24T09:06:55;99174.75;;;33.59
22269;BMP280;11303;50.772;19.670;2023-08-24T09:08:57;99172.47;;;33.80
22269;BMP280;11303;50.772;19.670;2023-08-24T09:10:59;99181.25;;;33.86
22269;BMP280;11303;50.772;19.670;2023-08-24T09:13:01;99172.00;;;33.76
22269;BMP280;11303;50.772;19.670;2023-08-24T09:15:04;99167.75;;;33.44
22269;BMP280;11303;50.772;19.670;2023-08-24T09:17:05;99161.03;;;32.76
22269;BMP280;11303;50.772;19.670;2023-08-24T09:19:11;99156.94;;;32.30
22269;BMP280;11303;50.772;19.670;2023-08-24T09:21:15;99155.94;;;32.39
22269;BMP280;11303;50.772;19.670;2023-08-24T09:23:17;99162.78;;;32.45
22269;BMP280;11303;50.772;19.670;2023-08-24T09:25:23;99162.56;;;32.49
22269;BMP280;11303;50.772;19.670;2023-08-24T09:27:25;99147.88;;;32.16
22269;BMP280;11303;50.772;19.670;2023-08-24T09:29:26;99155.63;;;31.81
22269;BMP280;11303;50.772;19.670;2023-08-24T09:31:38;99148.28;;;31.21
22269;BMP280;11303;50.772;19.670;2023-08-24T09:33:43;99155.59;;;31.21
22269;BMP280;11303;50.772;19.670;2023-08-24T09:35:52;99153.91;;;31.83
22269;BMP280;11303;50.772;19.670;2023-08-24T09:37:54;99148.34;;;32.20
22269;BMP280;11303;50.772;19.670;2023-08-24T09:40:01;99148.34;;;32.20
22269;BMP280;11303;50.772;19.670;2023-08-24T09:42:05;99154.28;;;31.59
22269;BMP280;11303;50.772;19.670;2023-08-24T09:44:07;99150.03;;;31.24
22269;BMP280;11303;50.772;19.670;2023-08-24T09:46:18;99150.28;;;30.95
22269;BMP280;11303;50.772;19.670;2023-08-24T09:48:21;99148.56;;;31.29
22269;BMP280;11303;50.772;19.670;2023-08-24T09:50:23;99148.22;;;31.64
22269;BMP280;11303;50.772;19.670;2023-08-24T09:52:33;99151.97;;;32.00
22269;BMP280;11303;50.772;19.670;2023-08-24T09:54:38;99142.84;;;31.59
22269;BMP280;11303;50.772;19.670;2023-08-24T09:56:42;99139.00;;;31.17
22269;BMP280;11303;50.772;19.670;2023-08-24T09:58:46;99135.66;;;31.33
22269;BMP280;11303;50.772;19.670;2023-08-24T10:00:49;99137.72;;;31.61
22269;BMP280;11303;50.772;19.670;2023-08-24T10:02:52;99137.47;;;31.59
22269;BMP280;11303;50.772;19.670;2023-08-24T10:04:56;99135.78;;;31.67
22269;BMP280;11303;50.772;19.670;2023-08-24T10:07:03;99144.41;;;31.99
22269;BMP280;11303;50.772;19.670;2023-08-24T10:09:08;99140.06;;;32.35
22269;BMP280;11303;50.772;19.670;2023-08-24T10:11:17;99143.97;;;32.34
22269;BMP280;11303;50.772;19.670;2023-08-24T10:13:44;99136.84;;;32.25
22269;BMP280;11303;50.772;19.670;2023-08-24T10:15:49;99122.38;;;31.95
22269;BMP280;11303;50.772;19.670;2023-08-24T10:17:52;99126.91;;;30.95
22269;BMP280;11303;50.772;19.670;2023-08-24T10:19:55;99127.78;;;30.49
22269;BMP280;11303;50.772;19.670;2023-08-24T10:22:00;99124.22;;;29.85
22269;BMP280;11303;50.772;19.670;2023-08-24T10:24:03;99135.38;;;30.25
22269;BMP280;11303;50.772;19.670;2023-08-24T10:26:06;99124.34;;;30.49
22269;BMP280;11303;50.772;19.670;2023-08-24T10:28:10;99127.16;;;30.66
22269;BMP280;11303;50.772;19.670;2023-08-24T10:30:14;99116.81;;;29.95
22269;BMP280;11303;50.772;19.670;2023-08-24T10:32:17;99119.81;;;29.62
22269;BMP280;11303;50.772;19.670;2023-08-24T10:34:19;99126.13;;;30.05
22269;BMP280;11303;50.772;19.670;2023-08-24T10:36:22;99121.09;;;30.65
22269;BMP280;11303;50.772;19.670;2023-08-24T10:38:28;99115.31;;;31.15
22269;BMP280;11303;50.772;19.670;2023-08-24T10:42:46;99118.97;;;31.89
22269;BMP280;11303;50.772;19.670;2023-08-24T10:44:48;99116.06;;;31.92
22269;BMP280;11303;50.772;19.670;2023-08-24T10:47:19;99109.50;;;30.85
22269;BMP280;11303;50.772;19.670;2023-08-24T10:49:21;99101.34;;;30.68
22269;BMP280;11303;50.772;19.670;2023-08-24T10:51:24;99110.84;;;31.06
22269;BMP280;11303;50.772;19.670;2023-08-24T10:53:37;99113.13;;;31.19
22269;BMP280;11303;50.772;19.670;2023-08-24T10:55:39;99115.25;;;31.10
22269;BMP280;11303;50.772;19.670;2023-08-24T10:57:41;99107.13;;;30.61
22269;BMP280;11303;50.772;19.670;2023-08-24T11:02:19;99103.75;;;31.03
22269;BMP280;11303;50.772;19.670;2023-08-24T11:04:21;99107.44;;;31.60
22269;BMP280;11303;50.772;19.670;2023-08-24T11:06:24;99094.16;;;31.45
22269;BMP280;11303;50.772;19.670;2023-08-24T11:08:45;99101.25;;;31.48
22269;BMP280;11303;50.772;19.670;2023-08-24T11:10:47;99104.00;;;31.65
22269;BMP280;11303;50.772;19.670;2023-08-24T11:13:17;99101.81;;;31.64
22269;BMP280;11303;50.772;19.670;2023-08-24T11:15:30;99093.41;;;31.28
22269;BMP280;11303;50.772;19.670;2023-08-24T11:17:35;99089.53;;;30.54
22269;BMP280;11303;50.772;19.670;2023-08-24T11:19:37;99084.63;;;30.21
22269;BMP280;11303;50.772;19.670;2023-08-24T11:21:40;99073.75;;;30.30
22269;BMP280;11303;50.772;19.670;2023-08-24T11:23:42;99071.06;;;30.30
22269;BMP280;11303;50.772;19.670;2023-08-24T11:25:45;99069.84;;;30.05
22269;BMP280;11303;50.772;19.670;2023-08-24T11:27:48;99071.63;;;29.88
22269;BMP280;11303;50.772;19.670;2023-08-24T11:29:59;99067.78;;;29.89
22269;BMP280;11303;50.772;19.670;2023-08-24T11:32:02;99062.56;;;30.37
22269;BMP280;11303;50.772;19.670;2023-08-24T11:34:04;99070.94;;;30.82
22269;BMP280;11303;50.772;19.670;2023-08-24T11:36:08;99065.25;;;31.12
22269;BMP280;11303;50.772;19.670;2023-08-24T11:38:10;99057.41;;;31.08
22269;BMP280;11303;50.772;19.670;2023-08-24T11:40:18;99054.41;;;29.95
22269;BMP280;11303;50.772;19.670;2023-08-24T11:42:35;99062.28;;;29.78
22269;BMP280;11303;50.772;19.670;2023-08-24T11:44:49;99050.19;;;30.14